Flight Track Log - Related Links

Times and Time Zones

All times are in EDT time to prevent confusion due to time zone crossing. See the SWA3943 flight status page for this flight to view local times or setup timezone preferences in your user account.

Time Position Orientation Groundspeed Altitude Reporting Facility
EDT Latitude Longitude Course Direction KTS MPH feet Rate Location/Type
Thu 11:07:03 PM 39.1031 -76.5947 133° Southeast 184 212 4,900  Level Washington Center
Thu 11:08:02 PM 39.0725 -76.5114 115° Southeast 234 269 7,700 3,076 Climbing Washington Center
Thu 11:09:02 PM 39.0942 -76.3992 76° East 256 295 11,000 3,350 Climbing Washington Center
Thu 11:10:02 PM 39.1178 -76.2764 76° East 304 350 14,400 3,400 Climbing Washington Center
Thu 11:11:02 PM 39.1414 -76.1589 75° East 352 405 17,800 3,300 Climbing Washington Center
Thu 11:12:02 PM 39.1689 -76.0172 76° East 382 440 21,000 3,000 Climbing Washington Center
Thu 11:13:02 PM 39.2028 -75.8728 73° East 402 463 23,800 2,500 Climbing Washington Center
Thu 11:14:02 PM 39.2883 -75.7578 46° Northeast 413 475 26,000 2,050 Climbing Washington Center
Thu 11:15:02 PM 39.3761 -75.6453 45° Northeast 424 488 27,900 1,983 Climbing Washington Center
Thu 11:16:03 PM 39.4636 -75.5325 45° Northeast 429 494 30,000 2,083 Climbing Washington Center
Thu 11:17:03 PM 39.5656 -75.4328 37° Northeast 438 504 32,100 2,200 Climbing Washington Center
Thu 11:18:03 PM 39.6842 -75.3731 21° North 450 518 34,400 2,165 Climbing Washington Center
Thu 11:18:40 PM 39.7561 -75.3397 20° North 446 513 35,600 1,608 Climbing New York Center
Thu 11:19:40 PM 39.8772 -75.2800 21° North 456 525 37,000 706 Climbing New York Center
Thu 11:20:39 PM 40.0089 -75.2153 21° North 461 531 37,000  Level New York Center
Thu 11:21:41 PM 40.1281 -75.1553 21° North 456 525 37,000  Level New York Center
Thu 11:22:41 PM 40.2447 -75.0947 22° Northeast 456 525 37,000  Level New York Center
Thu 11:24:48 PM 40.4836 -74.9750 21° North 457 526 37,000  Level Boston Center
Thu 11:25:47 PM 40.5997 -74.9139 22° Northeast 457 526 37,000  Level Boston Center
Thu 11:26:46 PM 40.7175 -74.8581 20° North 452 520 37,000  Level Boston Center
Thu 11:27:48 PM 40.8336 -74.7964 22° Northeast 452 520 37,000  Level Boston Center
Thu 11:28:48 PM 40.9536 -74.7378 20° North 452 520 37,000  Level Boston Center
Thu 11:29:46 PM 41.0694 -74.6783 21° North 452 520 37,000  Level Boston Center
Thu 11:30:47 PM 41.1872 -74.6164 22° Northeast 452 520 37,000  Level Boston Center
Thu 11:31:46 PM 41.3178 -74.5572 19° North 452 520 37,000  Level Boston Center
Thu 11:32:47 PM 41.4333 -74.4975 21° North 452 520 37,000 -50 Level Boston Center
Thu 11:33:46 PM 41.5367 -74.4342 25° Northeast 452 520 36,900 -605 Descending Boston Center
Thu 11:34:46 PM 41.6411 -74.2983 44° Northeast 452 520 35,800 -1,041 Descending Boston Center
Thu 11:35:47 PM 41.7247 -74.1564 52° Northeast 458 527 34,800 -950 Descending Boston Center
Thu 11:36:46 PM 41.8017 -74.0192 53° Northeast 464 534 33,900 -900 Descending Boston Center
Thu 11:37:47 PM 41.8847 -73.8817 51° Northeast 464 534 33,000 -942 Descending Boston Center
Thu 11:38:47 PM 41.9658 -73.7383 53° Northeast 474 545 32,000 -1,008 Descending Boston Center
Thu 11:39:46 PM 42.0486 -73.6031 50° Northeast 474 545 31,000 -992 Descending Boston Center
Thu 11:40:48 PM 42.1311 -73.4619 52° Northeast 479 551 30,000 -992 Descending Boston Center
Thu 11:41:47 PM 42.2031 -73.3342 53° Northeast 460 529 29,000 -1,017 Descending Boston Center
Thu 11:42:46 PM 42.2792 -73.2033 52° Northeast 441 507 28,000 -1,350 Descending Boston Center
Thu 11:43:47 PM 42.3550 -73.0639 54° Northeast 443 510 26,300 -1,869 Descending Boston Center
Thu 11:44:48 PM 42.4264 -72.9408 52° Northeast 443 510 24,200 -2,067 Descending Boston Center
Thu 11:45:46 PM 42.4978 -72.8144 53° Northeast 430 495 22,200 -2,471 Descending Boston Center
Thu 11:46:47 PM 42.5544 -72.6797 60° Northeast 419 482 19,300 -2,231 Descending Boston Center
Thu 11:47:47 PM 42.6025 -72.5500 63° Northeast 413 475 17,700 -1,850 Descending Boston Center
Thu 11:48:47 PM 42.6525 -72.4119 64° Northeast 413 475 15,600 -2,182 Descending Boston Center
Thu 11:49:48 PM 42.7025 -72.2622 66° East 401 461 13,300 -2,067 Descending Boston Center
Thu 11:50:46 PM 42.7481 -72.1319 65° Northeast 383 441 11,500 -1,664 Descending Boston Center
Thu 11:51:47 PM 42.7914 -72.0072 65° Northeast 363 418 10,000 -1,250 Descending Boston Center
Thu 11:52:46 PM 42.8033 -71.8883 82° East 330 380 9,000 -1,109 Descending Boston Center
Thu 11:53:46 PM 42.7964 -71.7694 95° East 318 366 7,800 -1,180 Descending Boston Center
Thu 11:54:48 PM 42.7894 -71.6564 95° East 307 353 6,600 -1,091 Descending Boston Center
Thu 11:55:47 PM 42.7844 -71.5519 94° East 282 325 5,600 -950 Descending Boston Center
Thu 11:56:48 PM 42.7797 -71.4728 95° East 248 285 4,700 -1,250 Descending Boston Center
Thu 11:57:47 PM 42.7747 -71.3850 94° East 219 252 3,100 -1,059 Descending Boston Center
Thu 11:58:47 PM 42.8100 -71.3647 23° Northeast 148 170 2,600 -625 Descending Boston Center
Fri 12:00:11 AM 42.8625 -71.3919 339° North 139 160 1,600 -781 Descending Boston Center
Fri 12:01:13 AM 42.9003 -71.4169 334° Northwest 138 159 700 -590 Descending Boston Center
Fri 12:02:13 AM 42.9336 -71.4361 337° Northwest 132 152 400 4,256 Descending Boston Center
Fri 12:03:10 AM 42.9650 -71.4556 336° Northwest 132 152 9,000 4,336 Climbing Boston Center
Fri 12:04:12 AM 42.9967 -71.4778 333° Northwest 132 152 9,000  Level Boston Center
Fri 12:05:10 AM 43.0281 -71.4972 336° Northwest 132 152 9,000  Level Boston Center
Fri 12:07:00 AM 42.9328 -71.4358 160° South  Level Estimated
Fri 12:14:00 AM 42.9328 -71.4358 160° South  Level Estimated
Fri 12:15:00 AM 42.9328 -71.4358 160° South  Level Estimated
Fri 12:16:00 AM 42.9328 -71.4358 160° South  Level Estimated
Fri 12:17:00 AM 42.9328 -71.4358 160° South  Level Estimated
Fri 12:18:00 AM 42.9328 -71.4358 160° South  Level Estimated
Fri 12:19:00 AM 42.9328 -71.4358 160° South  Level Estimated

Login

Don't have an account? Register now (free) for customized features, flight alerts, and more!